Time;durP1;ratioP1;P1;durP2;ratioP2;P2;SDS_P1;SDS_P2;PMS_P1;PMS_P2;Temp;Humidity;BMP_temperature;BMP_pressure;BME280_temperature;BME280_humidity;BME280_pressure;Samples;Min_cycle;Max_cycle;Signal;HPM_P1;HPM_P2
2023/05/26 00:01:59;;;;;;;;;;;;;;;13.94;100.00;96726.84;5029205;28;19935;-85
2023/05/26 00:04:44;;;;;;;;;;;;;;;13.89;100.00;96723.19;5030238;28;19925;-85
2023/05/26 00:07:11;;;;;;;;;;;;;;;13.87;100.00;96728.03;5040580;28;19928;-85
2023/05/26 00:09:38;;;;;;;;;;;;;;;13.82;100.00;96726.06;5030711;28;20018;-85
2023/05/26 00:12:07;;;;;;;;;;;;;;;13.79;100.00;96718.41;5044346;28;19924;-84
2023/05/26 00:14:33;;;;;;;;;;;;;;;13.80;100.00;96725.47;5028416;28;19925;-85
2023/05/26 00:17:02;;;;;;;;;;;;;;;13.70;100.00;96716.28;5031594;28;19995;-85
2023/05/26 00:19:31;;;;;;;;;;;;;;;13.60;100.00;96725.91;5031493;28;20010;-85
2023/05/26 00:21:58;;;;;;;;;;;;;;;13.56;100.00;96715.75;5049567;28;20187;-85
2023/05/26 00:24:26;;;;;;;;;;;;;;;13.55;100.00;96716.81;5035018;28;19994;-85
2023/05/26 00:26:53;;;;;;;;;;;;;;;13.47;100.00;96715.31;5033262;28;19992;-84
2023/05/26 00:29:21;;;;;;;;;;;;;;;13.38;100.00;96713.19;5031012;28;19954;-85
2023/05/26 00:31:48;;;;;;;;;;;;;;;13.30;100.00;96717.13;5033955;28;19941;-85
2023/05/26 00:34:15;;;;;;;;;;;;;;;13.31;100.00;96705.19;5036329;28;19925;-85
2023/05/26 00:36:42;;;;;;;;;;;;;;;13.31;100.00;96713.34;5031408;28;19925;-85
2023/05/26 00:39:08;;;;;;;;;;;;;;;13.30;100.00;96700.84;5030721;28;19929;-84
2023/05/26 00:41:35;;;;;;;;;;;;;;;13.30;100.00;96708.97;5024951;28;20003;-85
2023/05/26 00:44:02;;;;;;;;;;;;;;;13.31;100.00;96715.22;5025130;28;19933;-85
2023/05/26 00:46:30;;;;;;;;;;;;;;;13.33;100.00;96715.81;5030179;28;20010;-85
2023/05/26 00:48:57;;;;;;;;;;;;;;;13.32;100.00;96706.84;5024271;28;19947;-85
2023/05/26 00:51:24;;;;;;;;;;;;;;;13.28;100.00;96705.66;5028140;28;19926;-85
2023/05/26 00:53:52;;;;;;;;;;;;;;;13.17;100.00;96707.34;5032349;28;19928;-84
2023/05/26 00:56:19;;;;;;;;;;;;;;;13.01;100.00;96710.75;5049803;28;19932;-85
2023/05/26 00:58:46;;;;;;;;;;;;;;;12.95;100.00;96700.84;5027793;28;19932;-85
2023/05/26 01:01:13;;;;;;;;;;;;;;;12.94;100.00;96703.78;5052747;28;19925;-85
2023/05/26 01:03:41;;;;;;;;;;;;;;;12.92;100.00;96708.63;5033828;28;19932;-86
2023/05/26 01:06:08;;;;;;;;;;;;;;;12.87;100.00;96699.31;5028424;28;19925;-85
2023/05/26 01:08:35;;;;;;;;;;;;;;;12.88;100.00;96703.69;5014390;28;19925;-85
2023/05/26 01:11:04;;;;;;;;;;;;;;;12.81;100.00;96697.56;5018000;28;19925;-85
2023/05/26 01:13:34;;;;;;;;;;;;;;;12.74;100.00;96699.56;5014244;28;19925;-85
2023/05/26 01:16:03;;;;;;;;;;;;;;;12.67;100.00;96696.16;5012038;28;19936;-85
2023/05/26 01:18:32;;;;;;;;;;;;;;;12.67;100.00;96695.31;5020164;28;19925;-85
2023/05/26 01:21:05;;;;;;;;;;;;;;;12.69;100.00;96693.19;5012208;28;19925;-85
2023/05/26 01:23:56;;;;;;;;;;;;;;;12.65;100.00;96698.25;5013866;28;19957;-85
2023/05/26 01:26:33;;;;;;;;;;;;;;;12.55;100.00;96687.19;5007795;28;19952;-85
2023/05/26 01:29:06;;;;;;;;;;;;;;;12.49;100.00;96694.38;5009471;28;19947;-85
2023/05/26 01:31:34;;;;;;;;;;;;;;;12.50;100.00;96692.50;5010253;28;19926;-85
2023/05/26 01:34:01;;;;;;;;;;;;;;;12.50;100.00;96692.50;5027635;28;19929;-85
2023/05/26 01:36:28;;;;;;;;;;;;;;;12.45;100.00;96690.47;5007610;28;19939;-85
2023/05/26 01:38:57;;;;;;;;;;;;;;;12.45;100.00;96686.94;5021100;28;20001;-85
2023/05/26 01:41:27;;;;;;;;;;;;;;;12.42;100.00;96690.09;5003594;28;19933;-85
2023/05/26 01:44:00;;;;;;;;;;;;;;;12.45;100.00;96682.34;5000747;28;20114;-85
2023/05/26 01:46:31;;;;;;;;;;;;;;;12.43;100.00;96676.31;5011135;28;19933;-85
2023/05/26 01:49:00;;;;;;;;;;;;;;;12.39;100.00;96677.03;5010359;28;19941;-85
2023/05/26 01:51:32;;;;;;;;;;;;;;;12.35;100.00;96682.09;5002754;28;19925;-85
2023/05/26 01:54:02;;;;;;;;;;;;;;;12.34;100.00;96688.56;5009040;28;19960;-85
2023/05/26 01:56:32;;;;;;;;;;;;;;;12.33;100.00;96688.81;5024677;28;19968;-85
2023/05/26 01:59:01;;;;;;;;;;;;;;;12.34;100.00;96687.72;5008695;28;19925;-85
2023/05/26 02:01:33;;;;;;;;;;;;;;;12.29;100.00;96691.16;5010099;28;19948;-85
2023/05/26 02:04:00;;;;;;;;;;;;;;;12.29;100.00;96695.72;5032101;28;19933;-85
2023/05/26 02:06:27;;;;;;;;;;;;;;;12.33;100.00;96702.34;5031354;28;19933;-86
2023/05/26 02:08:54;;;;;;;;;;;;;;;12.32;100.00;96700.69;5030984;28;19924;-85
2023/05/26 02:11:20;;;;;;;;;;;;;;;12.35;100.00;96702.91;5038040;28;19935;-85
2023/05/26 02:13:48;;;;;;;;;;;;;;;12.39;100.00;96717.66;5028401;28;19925;-85
2023/05/26 02:16:15;;;;;;;;;;;;;;;12.37;100.00;96708.94;5030934;28;19939;-85
2023/05/26 02:18:45;;;;;;;;;;;;;;;12.31;100.00;96707.16;5030440;28;19925;-85
2023/05/26 02:21:13;;;;;;;;;;;;;;;12.25;100.00;96711.59;5021858;28;19933;-85
2023/05/26 02:23:40;;;;;;;;;;;;;;;12.22;100.00;96703.13;5025623;28;19929;-85
2023/05/26 02:26:07;;;;;;;;;;;;;;;12.27;100.00;96703.25;5030584;28;19925;-85
2023/05/26 02:28:34;;;;;;;;;;;;;;;12.26;100.00;96694.31;5027703;28;19924;-85
2023/05/26 02:31:01;;;;;;;;;;;;;;;12.20;100.00;96691.72;5042822;28;19925;-85
2023/05/26 02:33:27;;;;;;;;;;;;;;;12.20;100.00;96697.13;5030181;28;19928;-85
2023/05/26 02:35:56;;;;;;;;;;;;;;;12.18;100.00;96696.53;5029198;28;19932;-85
2023/05/26 02:38:23;;;;;;;;;;;;;;;12.17;100.00;96701.09;5030651;28;19924;-85
2023/05/26 02:40:50;;;;;;;;;;;;;;;12.19;100.00;96701.72;5030338;28;19925;-85
2023/05/26 02:43:17;;;;;;;;;;;;;;;12.19;100.00;96703.59;5027139;28;20198;-85
2023/05/26 02:45:44;;;;;;;;;;;;;;;12.16;100.00;96698.66;5043335;28;19960;-85
2023/05/26 02:48:11;;;;;;;;;;;;;;;12.12;100.00;96701.81;5025992;28;19963;-85
2023/05/26 02:50:37;;;;;;;;;;;;;;;12.09;100.00;96702.28;5022664;28;20036;-85
2023/05/26 02:53:05;;;;;;;;;;;;;;;12.09;100.00;96704.16;5031238;28;19971;-85
2023/05/26 02:55:32;;;;;;;;;;;;;;;12.10;100.00;96703.94;5044604;28;19925;-85
2023/05/26 02:58:00;;;;;;;;;;;;;;;12.13;100.00;96708.06;5032468;28;19964;-85
2023/05/26 03:00:27;;;;;;;;;;;;;;;12.14;100.00;96701.59;5047963;28;19932;-85
2023/05/26 03:02:54;;;;;;;;;;;;;;;12.02;100.00;96698.84;5023624;28;19924;-85
2023/05/26 03:05:21;;;;;;;;;;;;;;;11.94;100.00;96703.75;5032079;28;19912;-85
2023/05/26 03:07:49;;;;;;;;;;;;;;;11.96;100.00;96707.06;5033279;28;19929;-85
2023/05/26 03:10:17;;;;;;;;;;;;;;;11.92;100.00;96698.56;5033820;28;19945;-85
2023/05/26 03:12:44;;;;;;;;;;;;;;;11.93;100.00;96697.50;5047500;28;19967;-86
2023/05/26 03:15:11;;;;;;;;;;;;;;;11.86;100.00;96702.19;5037827;28;19932;-85
2023/05/26 03:17:39;;;;;;;;;;;;;;;11.80;100.00;96705.00;5030356;28;20016;-85
2023/05/26 03:20:07;;;;;;;;;;;;;;;11.80;100.00;96699.59;5045801;28;19925;-85
2023/05/26 03:22:34;;;;;;;;;;;;;;;11.70;100.00;96709.06;5029953;28;19936;-85
2023/05/26 03:25:01;;;;;;;;;;;;;;;11.62;100.00;96716.66;5027981;28;19956;-85
2023/05/26 03:27:39;;;;;;;;;;;;;;;11.54;100.00;96714.25;5025673;28;19947;-86
2023/05/26 03:30:06;;;;;;;;;;;;;;;11.52;100.00;96716.34;5032769;28;20007;-85
2023/05/26 03:32:33;;;;;;;;;;;;;;;11.58;100.00;96716.28;5031445;28;19987;-85
2023/05/26 03:35:00;;;;;;;;;;;;;;;11.63;100.00;96712.91;5036237;28;19926;-85
2023/05/26 03:37:27;;;;;;;;;;;;;;;11.61;100.00;96715.00;5032458;28;19924;-85
2023/05/26 03:39:54;;;;;;;;;;;;;;;11.58;100.00;96712.72;5040356;28;19924;-85
2023/05/26 03:42:23;;;;;;;;;;;;;;;11.56;100.00;96717.56;5039241;28;19971;-85
2023/05/26 03:44:52;;;;;;;;;;;;;;;11.56;100.00;96722.97;5041141;28;19925;-86
2023/05/26 03:47:20;;;;;;;;;;;;;;;11.54;100.00;96715.09;5040169;28;19955;-85
2023/05/26 03:49:47;;;;;;;;;;;;;;;11.55;100.00;96721.31;5042892;28;19931;-85
2023/05/26 03:52:15;;;;;;;;;;;;;;;11.53;100.00;96731.53;5040749;28;19924;-85
2023/05/26 03:54:42;;;;;;;;;;;;;;;11.54;100.00;96733.19;5052888;28;19929;-85
2023/05/26 03:57:09;;;;;;;;;;;;;;;11.53;100.00;96728.84;5040287;28;19928;-85
2023/05/26 03:59:35;;;;;;;;;;;;;;;11.57;100.00;96735.44;5035595;28;19932;-85
2023/05/26 04:02:05;;;;;;;;;;;;;;;11.61;100.00;96732.06;5054240;28;19925;-85
2023/05/26 04:04:33;;;;;;;;;;;;;;;11.65;100.00;96738.66;5038295;28;19952;-85
2023/05/26 04:06:59;;;;;;;;;;;;;;;11.62;100.00;96738.28;5037674;28;19925;-85
2023/05/26 04:09:26;;;;;;;;;;;;;;;11.61;100.00;96734.75;5041563;28;19932;-85
2023/05/26 04:11:54;;;;;;;;;;;;;;;11.64;100.00;96742.44;5051129;28;19929;-85
2023/05/26 04:14:21;;;;;;;;;;;;;;;11.67;100.00;96735.72;5060652;28;19931;-85
2023/05/26 04:16:48;;;;;;;;;;;;;;;11.63;100.00;96732.66;5044367;28;19924;-86
2023/05/26 04:19:42;;;;;;;;;;;;;;;11.58;100.00;96740.59;5056765;28;20016;-86
2023/05/26 04:22:09;;;;;;;;;;;;;;;11.59;100.00;96738.72;5037182;28;19929;-83
2023/05/26 04:24:36;;;;;;;;;;;;;;;11.63;100.00;96739.94;5029317;28;19948;-83
2023/05/26 04:27:03;;;;;;;;;;;;;;;11.54;100.00;96738.59;5046768;28;19953;-84
2023/05/26 04:29:49;;;;;;;;;;;;;;;11.50;100.00;96731.97;5026568;28;19966;-86
2023/05/26 04:32:28;;;;;;;;;;;;;;;11.47;100.00;96741.38;5031410;28;19956;-85
2023/05/26 04:35:05;;;;;;;;;;;;;;;11.44;100.00;96741.00;5053515;28;19931;-86
2023/05/26 04:37:36;;;;;;;;;;;;;;;11.41;100.00;96746.84;5036124;28;19932;-86
2023/05/26 04:40:05;;;;;;;;;;;;;;;11.37;100.00;96741.09;5032453;28;19990;-86
2023/05/26 04:42:34;;;;;;;;;;;;;;;11.33;100.00;96731.75;5047817;28;19933;-85
2023/05/26 04:45:02;;;;;;;;;;;;;;;11.34;100.00;96739.66;5029182;28;19932;-86
2023/05/26 04:47:32;;;;;;;;;;;;;;;11.43;100.00;96736.66;5040878;28;19929;-85
2023/05/26 04:49:59;;;;;;;;;;;;;;;11.50;100.00;96745.50;5049540;28;19929;-86
2023/05/26 04:52:27;;;;;;;;;;;;;;;11.51;100.00;96741.75;5046823;28;19925;-85
2023/05/26 04:54:54;;;;;;;;;;;;;;;11.52;100.00;96744.22;5028180;28;19994;-85
2023/05/26 04:57:22;;;;;;;;;;;;;;;11.57;100.00;96743.56;5044815;28;19925;-85
2023/05/26 04:59:53;;;;;;;;;;;;;;;11.65;100.00;96748.66;5035951;28;19955;-85
2023/05/26 05:02:20;;;;;;;;;;;;;;;11.71;100.00;96753.16;5037643;28;19932;-85
2023/05/26 05:04:59;;;;;;;;;;;;;;;11.73;100.00;96751.06;5032768;28;19929;-85
2023/05/26 05:07:28;;;;;;;;;;;;;;;11.72;100.00;96752.94;5031276;28;19925;-85
2023/05/26 05:09:55;;;;;;;;;;;;;;;11.72;100.00;96758.34;5029378;28;19984;-85
2023/05/26 05:12:24;;;;;;;;;;;;;;;11.73;100.00;96756.47;5021612;28;19925;-85
2023/05/26 05:14:51;;;;;;;;;;;;;;;11.69;100.00;96760.66;5032792;28;20020;-85
2023/05/26 05:17:19;;;;;;;;;;;;;;;11.71;100.00;96759.41;5017059;28;19925;-85
2023/05/26 05:19:46;;;;;;;;;;;;;;;11.73;100.00;96760.00;5033844;28;19932;-85
2023/05/26 05:22:14;;;;;;;;;;;;;;;11.74;100.00;96760.78;5049485;28;19929;-85
2023/05/26 05:24:43;;;;;;;;;;;;;;;11.72;100.00;96765.63;5034651;28;19932;-85
2023/05/26 05:27:11;;;;;;;;;;;;;;;11.75;100.00;96762.50;5030601;28;19932;-85
2023/05/26 05:29:38;;;;;;;;;;;;;;;11.80;100.00;96765.34;5029600;28;19929;-84
2023/05/26 05:32:05;;;;;;;;;;;;;;;11.82;100.00;96771.38;5031039;28;19925;-85
2023/05/26 05:34:41;;;;;;;;;;;;;;;11.84;100.00;96771.94;5024947;28;19925;-85
2023/05/26 05:37:09;;;;;;;;;;;;;;;11.90;100.00;96768.34;5014819;28;19939;-85
2023/05/26 05:39:37;;;;;;;;;;;;;;;11.97;100.00;96776.38;5036310;28;19960;-85
2023/05/26 05:42:07;;;;;;;;;;;;;;;11.96;100.00;96778.25;5023528;28;19992;-85
2023/05/26 05:44:35;;;;;;;;;;;;;;;11.94;100.00;96774.94;5025609;28;20023;-85
2023/05/26 05:47:02;;;;;;;;;;;;;;;11.98;100.00;96784.28;5026284;28;19971;-86
2023/05/26 05:49:42;;;;;;;;;;;;;;;12.02;100.00;96788.16;5025932;28;20020;-86
2023/05/26 05:52:09;;;;;;;;;;;;;;;11.99;100.00;96785.09;5023348;28;19996;-85
2023/05/26 05:54:36;;;;;;;;;;;;;;;11.92;100.00;96776.22;5026817;28;19933;-85
2023/05/26 05:57:03;;;;;;;;;;;;;;;11.90;100.00;96783.75;5021885;28;19949;-84
2023/05/26 05:59:31;;;;;;;;;;;;;;;11.87;100.00;96779.63;5029338;28;20177;-85
2023/05/26 06:01:58;;;;;;;;;;;;;;;11.82;100.00;96784.06;5031484;28;19932;-85
2023/05/26 06:04:25;;;;;;;;;;;;;;;11.78;100.00;96780.16;5023367;28;19926;-86
2023/05/26 06:06:52;;;;;;;;;;;;;;;11.79;100.00;96777.22;5031456;28;19925;-85
2023/05/26 06:09:20;;;;;;;;;;;;;;;11.81;100.00;96777.84;5030525;28;20004;-86
2023/05/26 06:11:47;;;;;;;;;;;;;;;11.85;100.00;96779.00;5020074;28;19926;-86
2023/05/26 06:14:13;;;;;;;;;;;;;;;11.91;100.00;96783.50;5030429;28;20015;-86
2023/05/26 06:16:42;;;;;;;;;;;;;;;11.99;100.00;96783.19;5024822;28;19928;-85
2023/05/26 06:19:09;;;;;;;;;;;;;;;12.04;100.00;96786.06;5028559;28;19963;-86
2023/05/26 06:21:36;;;;;;;;;;;;;;;12.09;100.00;96788.88;5028577;28;20015;-85
2023/05/26 06:24:04;;;;;;;;;;;;;;;12.12;100.00;96788.44;5030123;28;19933;-85
2023/05/26 06:26:31;;;;;;;;;;;;;;;12.11;100.00;96781.38;5039811;28;19936;-85
2023/05/26 06:28:58;;;;;;;;;;;;;;;12.09;100.00;96780.78;5027148;28;19926;-86
2023/05/26 06:31:25;;;;;;;;;;;;;;;12.09;100.00;96777.22;5021592;28;20067;-85
2023/05/26 06:34:10;;;;;;;;;;;;;;;12.10;100.00;96782.41;5029462;28;20071;-86
2023/05/26 06:36:37;;;;;;;;;;;;;;;12.13;100.00;96783.84;5026585;28;19936;-85
2023/05/26 06:39:04;;;;;;;;;;;;;;;12.13;100.00;96776.56;5026235;28;19931;-86
2023/05/26 06:41:33;;;;;;;;;;;;;;;12.18;100.00;96775.03;5027827;28;19953;-86
2023/05/26 06:44:01;;;;;;;;;;;;;;;12.24;100.00;96774.13;5035716;28;19929;-86
2023/05/26 06:46:31;;;;;;;;;;;;;;;12.31;100.00;96770.28;5040352;28;19933;-85
2023/05/26 06:48:58;;;;;;;;;;;;;;;12.37;100.00;96771.22;5028152;28;19925;-86
2023/05/26 06:51:42;;;;;;;;;;;;;;;12.44;100.00;96774.66;5043213;28;19929;-86
2023/05/26 06:54:09;;;;;;;;;;;;;;;12.47;100.00;96775.03;5039925;28;19933;-85
2023/05/26 06:56:37;;;;;;;;;;;;;;;12.51;100.00;96770.78;5033809;28;19965;-85
2023/05/26 06:59:04;;;;;;;;;;;;;;;12.60;100.00;96773.16;5028663;28;19935;-86
2023/05/26 07:01:31;;;;;;;;;;;;;;;12.61;100.00;96770.22;5024608;28;19925;-85
2023/05/26 07:03:59;;;;;;;;;;;;;;;12.64;100.00;96779.78;5032717;28;19936;-85
2023/05/26 07:06:26;;;;;;;;;;;;;;;12.65;100.00;96766.00;5034619;28;19953;-85
2023/05/26 07:08:56;;;;;;;;;;;;;;;12.72;100.00;96766.72;5035831;28;19928;-86
2023/05/26 07:11:29;;;;;;;;;;;;;;;13.01;100.00;96772.28;5067090;28;20169;-85
2023/05/26 07:13:59;;;;;;;;;;;;;;;13.40;100.00;96774.28;5041805;28;20019;-86
2023/05/26 07:16:27;;;;;;;;;;;;;;;13.85;100.00;96773.63;5035517;28;19925;-86
2023/05/26 07:18:54;;;;;;;;;;;;;;;14.24;100.00;96769.22;5036669;28;20051;-85
2023/05/26 07:21:24;;;;;;;;;;;;;;;14.71;100.00;96769.84;5040109;28;19933;-86
2023/05/26 07:23:51;;;;;;;;;;;;;;;15.07;100.00;96769.31;5025781;28;19925;-86
2023/05/26 07:26:21;;;;;;;;;;;;;;;15.55;100.00;96781.50;5032649;28;19970;-84
2023/05/26 07:28:51;;;;;;;;;;;;;;;15.84;100.00;96774.81;5018323;28;19928;-85
2023/05/26 07:31:18;;;;;;;;;;;;;;;16.24;100.00;96776.38;5027897;28;19925;-86
2023/05/26 07:33:47;;;;;;;;;;;;;;;16.48;100.00;96775.00;5027709;28;19983;-86
2023/05/26 07:36:14;;;;;;;;;;;;;;;16.76;100.00;96775.84;5040328;28;19933;-85
2023/05/26 07:38:40;;;;;;;;;;;;;;;16.94;100.00;96772.72;5030249;28;19931;-85
2023/05/26 07:41:07;;;;;;;;;;;;;;;17.10;100.00;96774.47;5037004;28;19948;-86
2023/05/26 07:43:36;;;;;;;;;;;;;;;17.26;100.00;96780.91;5031767;28;19933;-85
2023/05/26 07:46:02;;;;;;;;;;;;;;;17.54;100.00;96777.78;5043494;28;19925;-86
2023/05/26 07:48:30;;;;;;;;;;;;;;;17.80;100.00;96786.16;5038305;28;19931;-85
2023/05/26 07:50:56;;;;;;;;;;;;;;;18.06;100.00;96786.03;5046374;28;20016;-87
2023/05/26 07:53:23;;;;;;;;;;;;;;;18.05;100.00;96776.16;5031697;28;19925;-85
2023/05/26 07:55:50;;;;;;;;;;;;;;;18.05;100.00;96776.16;5024714;28;19936;-85
2023/05/26 07:58:18;;;;;;;;;;;;;;;18.07;100.00;96775.91;5019275;28;19936;-86
2023/05/26 08:00:46;;;;;;;;;;;;;;;18.15;100.00;96773.47;5033536;28;20928;-86
2023/05/26 08:03:13;;;;;;;;;;;;;;;18.42;100.00;96777.94;5045481;28;19925;-86
2023/05/26 08:05:41;;;;;;;;;;;;;;;18.57;100.00;96775.28;5028916;28;19947;-86
2023/05/26 08:08:08;;;;;;;;;;;;;;;18.53;100.00;96774.16;5025328;28;20009;-86
2023/05/26 08:10:36;;;;;;;;;;;;;;;18.54;100.00;96768.38;5048612;28;19933;-84
2023/05/26 08:13:03;;;;;;;;;;;;;;;18.67;100.00;96764.34;5034421;28;20071;-81
2023/05/26 08:15:29;;;;;;;;;;;;;;;18.85;100.00;96773.94;5029753;28;20015;-81
2023/05/26 08:17:58;;;;;;;;;;;;;;;18.93;100.00;96773.41;5053253;28;20020;-83
2023/05/26 08:20:25;;;;;;;;;;;;;;;19.07;100.00;96773.66;5024330;28;19939;-81
2023/05/26 08:22:52;;;;;;;;;;;;;;;19.16;100.00;96766.56;5031852;28;19929;-82
2023/05/26 08:25:19;;;;;;;;;;;;;;;19.13;100.00;96773.41;5029455;28;19932;-82
2023/05/26 08:27:45;;;;;;;;;;;;;;;19.15;100.00;96770.38;5037468;28;19932;-81
2023/05/26 08:30:12;;;;;;;;;;;;;;;19.30;100.00;96770.41;5044729;28;19925;-81
2023/05/26 08:32:39;;;;;;;;;;;;;;;19.43;100.00;96769.81;5024122;28;19935;-82
2023/05/26 08:35:08;;;;;;;;;;;;;;;19.49;100.00;96763.25;5043445;28;19925;-81
2023/05/26 08:37:35;;;;;;;;;;;;;;;19.53;100.00;96772.56;5025703;28;19940;-81
2023/05/26 08:40:04;;;;;;;;;;;;;;;19.40;100.00;96767.63;5037371;28;19940;-81
2023/05/26 08:42:33;;;;;;;;;;;;;;;19.35;100.00;96762.16;5031396;28;19964;-82
2023/05/26 08:45:01;;;;;;;;;;;;;;;19.39;100.00;96766.00;5029577;28;19925;-81
2023/05/26 08:47:28;;;;;;;;;;;;;;;19.43;100.00;96766.25;5029694;28;19925;-81
2023/05/26 08:49:57;;;;;;;;;;;;;;;19.50;100.00;96762.16;5025805;28;19948;-81
2023/05/26 08:52:26;;;;;;;;;;;;;;;19.55;100.00;96758.63;5042216;28;19951;-84
2023/05/26 08:54:52;;;;;;;;;;;;;;;19.62;100.00;96759.13;5042987;28;19933;-81
2023/05/26 08:57:20;;;;;;;;;;;;;;;19.65;100.00;96759.38;5028387;28;19978;-82
2023/05/26 08:59:48;;;;;;;;;;;;;;;19.65;100.00;96756.66;5045209;28;20028;-82
2023/05/26 09:02:17;;;;;;;;;;;;;;;19.79;100.00;96761.56;5030701;28;19933;-82
2023/05/26 09:04:43;;;;;;;;;;;;;;;19.95;100.00;96760.41;5046386;28;19936;-85
2023/05/26 09:07:10;;;;;;;;;;;;;;;20.00;100.00;96763.94;5040412;28;19947;-85
2023/05/26 09:09:38;;;;;;;;;;;;;;;20.19;100.00;96755.91;5038949;28;19925;-84
2023/05/26 09:12:09;;;;;;;;;;;;;;;20.20;100.00;96754.81;5035632;28;19937;-85
2023/05/26 09:14:37;;;;;;;;;;;;;;;20.27;100.00;96755.31;5025563;28;19949;-86
2023/05/26 09:17:04;;;;;;;;;;;;;;;20.32;100.00;96762.72;5039944;28;19948;-87
2023/05/26 09:19:32;;;;;;;;;;;;;;;20.30;100.00;96753.94;5032573;28;19939;-87
2023/05/26 09:22:07;;;;;;;;;;;;;;;20.33;100.00;96758.88;5040492;28;19924;-85
2023/05/26 09:24:45;;;;;;;;;;;;;;;20.44;100.00;96756.91;5048851;28;20008;-86
2023/05/26 09:27:19;;;;;;;;;;;;;;;20.44;100.00;96754.97;5060615;28;19925;-86
2023/05/26 09:29:51;;;;;;;;;;;;;;;20.44;100.00;96749.50;5039283;28;19924;-87
2023/05/26 09:32:18;;;;;;;;;;;;;;;20.49;100.00;96752.22;5048267;28;19948;-85
2023/05/26 09:34:45;;;;;;;;;;;;;;;20.57;100.00;96748.06;5029048;28;20008;-84
2023/05/26 09:37:12;;;;;;;;;;;;;;;20.60;100.00;96751.03;5032093;28;20035;-85
2023/05/26 09:39:38;;;;;;;;;;;;;;;20.65;100.00;96756.50;5045627;28;19929;-85
2023/05/26 09:42:07;;;;;;;;;;;;;;;20.73;100.00;96755.91;5028470;28;20016;-85
2023/05/26 09:44:34;;;;;;;;;;;;;;;20.62;100.00;96745.28;5044791;28;19935;-85
2023/05/26 09:47:01;;;;;;;;;;;;;;;20.53;100.00;96746.97;5031054;28;19924;-85
2023/05/26 09:49:28;;;;;;;;;;;;;;;20.59;100.00;96751.31;5045159;28;19932;-85
2023/05/26 09:51:55;;;;;;;;;;;;;;;20.73;100.00;96739.44;5035010;28;19925;-85
2023/05/26 09:54:21;;;;;;;;;;;;;;;20.76;98.26;96746.28;5040443;28;19940;-86
2023/05/26 09:56:51;;;;;;;;;;;;;;;20.78;99.00;96744.06;5038555;28;19925;-85
2023/05/26 09:59:20;;;;;;;;;;;;;;;20.95;98.65;96744.47;5037830;28;19928;-85
2023/05/26 10:01:47;;;;;;;;;;;;;;;20.96;98.28;96743.38;5035201;28;19928;-85
2023/05/26 10:04:15;;;;;;;;;;;;;;;20.93;98.27;96741.19;5036744;28;19940;-85
2023/05/26 10:06:42;;;;;;;;;;;;;;;21.23;99.90;96744.84;5058445;28;19932;-85
2023/05/26 10:09:09;;;;;;;;;;;;;;;21.22;96.17;96738.53;5033292;28;20516;-85
2023/05/26 10:11:39;;;;;;;;;;;;;;;21.36;97.65;96733.16;5018901;28;19937;-85
2023/05/26 10:14:06;;;;;;;;;;;;;;;21.55;97.73;96738.75;5022785;28;20040;-85
2023/05/26 10:16:36;;;;;;;;;;;;;;;21.48;97.47;96730.84;5029452;28;20005;-86
2023/05/26 10:19:02;;;;;;;;;;;;;;;21.58;99.21;96741.75;5047241;28;19924;-85
2023/05/26 10:21:33;;;;;;;;;;;;;;;21.70;95.79;96733.91;5027815;28;19955;-86
2023/05/26 10:24:04;;;;;;;;;;;;;;;21.79;96.11;96729.41;5034467;28;19925;-86
2023/05/26 10:26:35;;;;;;;;;;;;;;;21.82;95.29;96737.09;5052011;28;19947;-85
2023/05/26 10:29:03;;;;;;;;;;;;;;;21.76;95.37;96730.00;5032097;28;19925;-86
2023/05/26 10:31:30;;;;;;;;;;;;;;;21.85;97.00;96731.00;5040363;28;19928;-85
2023/05/26 10:33:58;;;;;;;;;;;;;;;21.87;94.59;96728.75;5029031;28;19931;-85
2023/05/26 10:36:25;;;;;;;;;;;;;;;21.99;94.64;96727.56;5034261;28;20019;-85
2023/05/26 10:38:53;;;;;;;;;;;;;;;21.98;94.30;96725.94;5037434;28;19939;-85
2023/05/26 10:41:30;;;;;;;;;;;;;;;22.05;92.85;96718.13;5034534;28;19925;-85
2023/05/26 10:43:57;;;;;;;;;;;;;;;22.12;94.65;96713.91;5034225;28;20122;-85
2023/05/26 10:46:36;;;;;;;;;;;;;;;22.13;93.40;96717.47;5035744;28;19929;-85
2023/05/26 10:49:06;;;;;;;;;;;;;;;22.26;91.67;96708.50;5040828;28;20016;-84
2023/05/26 10:51:32;;;;;;;;;;;;;;;22.34;91.70;96709.78;5031209;28;19925;-84
2023/05/26 10:54:00;;;;;;;;;;;;;;;22.40;92.20;96705.84;5055559;28;19925;-85
2023/05/26 10:56:35;;;;;;;;;;;;;;;22.30;91.89;96706.78;5030410;28;19925;-85
2023/05/26 10:59:05;;;;;;;;;;;;;;;22.50;93.17;96703.75;5036411;28;19925;-84
2023/05/26 11:01:33;;;;;;;;;;;;;;;22.65;92.13;96702.72;5032049;28;19929;-82
2023/05/26 11:04:09;;;;;;;;;;;;;;;22.86;90.37;96689.50;5047305;28;19925;-84
2023/05/26 11:06:43;;;;;;;;;;;;;;;22.96;89.98;96697.59;5060251;28;19929;-83
2023/05/26 11:09:10;;;;;;;;;;;;;;;23.06;89.98;96700.16;5045782;28;19986;-83
2023/05/26 11:11:38;;;;;;;;;;;;;;;23.11;87.69;96702.81;5037087;28;19925;-83
2023/05/26 11:14:09;;;;;;;;;;;;;;;23.10;90.41;96703.94;5041546;28;19935;-83
2023/05/26 11:16:37;;;;;;;;;;;;;;;23.05;86.91;96703.22;5050357;28;19924;-84
2023/05/26 11:19:05;;;;;;;;;;;;;;;23.01;86.54;96700.25;5047896;28;19933;-83
2023/05/26 11:21:34;;;;;;;;;;;;;;;23.04;86.99;96690.56;5030223;28;19933;-82
2023/05/26 11:24:02;;;;;;;;;;;;;;;23.16;88.33;96679.88;5047707;28;19925;-83
2023/05/26 11:26:31;;;;;;;;;;;;;;;23.34;89.22;96690.00;5030151;28;20024;-84
2023/05/26 11:28:58;;;;;;;;;;;;;;;23.37;86.04;96679.22;5027861;28;19974;-84
2023/05/26 11:31:26;;;;;;;;;;;;;;;23.33;85.85;96683.69;5028845;28;19929;-83
2023/05/26 11:33:54;;;;;;;;;;;;;;;23.50;85.46;96671.28;5048377;28;19987;-82
2023/05/26 11:36:21;;;;;;;;;;;;;;;23.67;87.28;96677.00;5022617;28;19952;-83
2023/05/26 11:38:50;;;;;;;;;;;;;;;23.74;86.58;96667.22;5025773;28;19924;-83
2023/05/26 11:41:17;;;;;;;;;;;;;;;23.93;86.22;96652.50;5047158;28;19925;-82
2023/05/26 11:43:45;;;;;;;;;;;;;;;23.77;85.04;96657.50;5028970;28;19925;-82
2023/05/26 11:46:14;;;;;;;;;;;;;;;23.38;86.66;96664.31;5045928;28;19932;-82
2023/05/26 11:48:41;;;;;;;;;;;;;;;23.60;87.04;96655.38;5023149;28;19925;-82
2023/05/26 11:51:09;;;;;;;;;;;;;;;23.77;85.98;96655.56;5043091;28;20164;-82
2023/05/26 11:53:36;;;;;;;;;;;;;;;23.77;85.03;96649.25;5048512;28;19935;-84
2023/05/26 11:56:07;;;;;;;;;;;;;;;23.94;86.10;96648.63;5031117;28;19925;-83
2023/05/26 11:58:35;;;;;;;;;;;;;;;24.12;84.60;96650.44;5019368;28;19932;-85
2023/05/26 12:01:02;;;;;;;;;;;;;;;24.17;83.62;96650.31;5019861;28;19925;-83
2023/05/26 12:03:33;;;;;;;;;;;;;;;24.41;83.08;96641.81;5032159;28;20019;-84
2023/05/26 12:06:16;;;;;;;;;;;;;;;24.45;82.08;96640.88;5037634;28;19925;-84
2023/05/26 12:08:47;;;;;;;;;;;;;;;24.38;84.31;96645.19;5015357;28;19926;-84
2023/05/26 12:11:16;;;;;;;;;;;;;;;24.48;85.22;96636.69;5017321;28;19926;-84
2023/05/26 12:13:44;;;;;;;;;;;;;;;24.63;81.75;96636.31;5035821;28;19926;-84
2023/05/26 12:16:24;;;;;;;;;;;;;;;24.52;82.67;96632.97;5019842;28;19926;-84
2023/05/26 12:18:52;;;;;;;;;;;;;;;24.57;81.84;96632.03;5026933;28;19979;-83
2023/05/26 12:21:18;;;;;;;;;;;;;;;24.59;83.06;96626.19;5017253;28;19932;-84
2023/05/26 12:23:46;;;;;;;;;;;;;;;24.64;82.68;96624.13;5020844;28;19925;-84
2023/05/26 12:26:18;;;;;;;;;;;;;;;24.68;83.51;96618.78;5027953;28;19932;-84
2023/05/26 12:28:45;;;;;;;;;;;;;;;24.88;81.54;96612.75;5025527;28;19941;-84
2023/05/26 12:31:11;;;;;;;;;;;;;;;24.96;80.68;96613.97;5029361;28;19929;-84
2023/05/26 12:33:39;;;;;;;;;;;;;;;25.10;81.98;96609.16;5025762;28;19938;-83
2023/05/26 12:36:06;;;;;;;;;;;;;;;25.06;81.27;96613.72;5031501;28;19929;-84
2023/05/26 12:38:41;;;;;;;;;;;;;;;24.94;79.13;96603.22;5030015;28;19925;-84
2023/05/26 12:41:08;;;;;;;;;;;;;;;24.86;80.36;96602.00;5024979;28;20172;-84
2023/05/26 12:43:36;;;;;;;;;;;;;;;24.85;80.67;96597.63;5025566;28;19925;-84
2023/05/26 12:46:03;;;;;;;;;;;;;;;24.92;79.80;96608.28;5038545;28;19939;-84